LiveATC.Net - Listen to live air traffic control over the Internet!


ICAO: LZPT  IATA:   Airport: Male Bielice Airport
City: Partizanske
Country: Slovakia   Continent: Europe
LZPP METAR Weather: LZPP 202200Z AUTO 30004KT 260V320 9999 NCD M01/M05 Q1035
LZPT Flight Activity (FlightAware)
LZPT Webcam:  (Airport Webcams) 

LZPT CTAF
Feed Status: UP   Listeners: 0
Listen in your browser - HTML5 player (in browser, HTML5)
Click here to listen with your own player (launches your MP3 player)
LZPT CTAF Audio Archives
FacilityFrequency
Male Bielice CTAF123.500

NOTICE

Unauthorized use prohibited. See LiveATC.net Terms of Service


Find LiveATC Audio Streams


Airport/ARTCC Code

Frequency Search
(e.g., 124.400, 128.75)
Site-wide search
 


Browse LiveATC Feeds
Top 50 LiveATC Feeds
LiveATC Feed Map
Bad Weather Areas

LiveATC FAQ
Offer LiveATC feed
Contact LiveATC.net
Press Inquiries

LiveATC on iPhone
LiveATC on Android

Windows Phone
Windows 8/10

LiveATC Mobile
(Mobile browser)

ATC Audio Archives
Interesting Recordings

LiveATC Forums


Home Page
About LiveATC.net
Make a Donation
Terms of Use
Privacy Policy

Canadian Air Freqs

AIRMETs/SIGMETs

FAA Airport Status
Nat'l Airspace Status
Arrival Demand Charts


Server Software By:
Icecast.org
Liquidsoap